sensor_id;sensor_type;location;lat;lon;timestamp;pressure;altitude;pressure_sealevel;temperature;humidity
70217;BME280;65567;55.684;37.570;2023-03-26T00:00:05;97796.94;;;13.03;57.96
70217;BME280;65567;55.684;37.570;2023-03-26T00:02:33;97798.91;;;13.01;57.72
70217;BME280;65567;55.684;37.570;2023-03-26T00:04:59;97798.31;;;12.97;57.94
70217;BME280;65567;55.684;37.570;2023-03-26T00:07:25;97797.84;;;12.92;57.92
70217;BME280;65567;55.684;37.570;2023-03-26T00:09:52;97790.78;;;12.93;58.17
70217;BME280;65567;55.684;37.570;2023-03-26T00:12:18;97793.00;;;12.87;58.10
70217;BME280;65567;55.684;37.570;2023-03-26T00:14:44;97783.22;;;12.78;57.98
70217;BME280;65567;55.684;37.570;2023-03-26T00:17:10;97785.19;;;12.76;58.64
70217;BME280;65567;55.684;37.570;2023-03-26T00:19:55;97786.59;;;12.80;58.49
70217;BME280;65567;55.684;37.570;2023-03-26T00:22:21;97782.50;;;12.87;58.29
70217;BME280;65567;55.684;37.570;2023-03-26T00:24:48;97792.88;;;12.89;58.05
70217;BME280;65567;55.684;37.570;2023-03-26T00:27:15;97793.50;;;12.81;58.15
70217;BME280;65567;55.684;37.570;2023-03-26T00:29:42;97802.06;;;12.83;58.09
70217;BME280;65567;55.684;37.570;2023-03-26T00:32:08;97804.03;;;12.81;57.94
70217;BME280;65567;55.684;37.570;2023-03-26T00:34:33;97802.66;;;12.87;57.92
70217;BME280;65567;55.684;37.570;2023-03-26T00:36:59;97799.91;;;12.88;57.84
70217;BME280;65567;55.684;37.570;2023-03-26T00:39:28;97794.13;;;12.95;57.60
70217;BME280;65567;55.684;37.570;2023-03-26T00:41:58;97791.38;;;12.96;57.50
70217;BME280;65567;55.684;37.570;2023-03-26T00:44:23;97781.13;;;12.93;57.55
70217;BME280;65567;55.684;37.570;2023-03-26T00:46:49;97782.72;;;12.84;57.75
70217;BME280;65567;55.684;37.570;2023-03-26T00:49:34;97785.19;;;12.76;57.96
70217;BME280;65567;55.684;37.570;2023-03-26T00:52:00;97779.47;;;12.71;58.15
70217;BME280;65567;55.684;37.570;2023-03-26T00:54:28;97770.50;;;12.73;58.14
70217;BME280;65567;55.684;37.570;2023-03-26T00:57:30;97774.06;;;12.72;58.38
70217;BME280;65567;55.684;37.570;2023-03-26T00:59:56;97767.75;;;12.75;58.16
70217;BME280;65567;55.684;37.570;2023-03-26T01:02:22;97759.41;;;12.70;58.12
70217;BME280;65567;55.684;37.570;2023-03-26T01:04:58;97759.66;;;12.67;58.45
70217;BME280;65567;55.684;37.570;2023-03-26T01:07:28;97756.31;;;12.65;58.38
70217;BME280;65567;55.684;37.570;2023-03-26T01:09:58;97752.28;;;12.61;58.58
70217;BME280;65567;55.684;37.570;2023-03-26T01:12:30;97758.63;;;12.58;58.45
70217;BME280;65567;55.684;37.570;2023-03-26T01:15:00;97754.59;;;12.54;58.75
70217;BME280;65567;55.684;37.570;2023-03-26T01:17:27;97759.84;;;12.54;58.84
70217;BME280;65567;55.684;37.570;2023-03-26T01:22:47;97767.91;;;12.41;58.78
70217;BME280;65567;55.684;37.570;2023-03-26T01:25:14;97770.41;;;12.43;58.86
70217;BME280;65567;55.684;37.570;2023-03-26T01:30:37;97765.97;;;12.43;58.60
70217;BME280;65567;55.684;37.570;2023-03-26T01:36:03;97758.44;;;12.50;58.50
70217;BME280;65567;55.684;37.570;2023-03-26T01:38:39;97757.53;;;12.61;58.44
70217;BME280;65567;55.684;37.570;2023-03-26T01:41:19;97754.16;;;12.70;57.98
70217;BME280;65567;55.684;37.570;2023-03-26T01:46:39;97754.09;;;12.60;57.87
70217;BME280;65567;55.684;37.570;2023-03-26T01:52:15;97750.94;;;12.45;58.53
70217;BME280;65567;55.684;37.570;2023-03-26T01:54:42;97745.94;;;12.42;58.72
70217;BME280;65567;55.684;37.570;2023-03-26T01:57:28;97741.06;;;12.37;58.77
70217;BME280;65567;55.684;37.570;2023-03-26T02:00:02;97734.94;;;12.16;59.46
70217;BME280;65567;55.684;37.570;2023-03-26T02:05:35;97728.22;;;12.23;59.09
70217;BME280;65567;55.684;37.570;2023-03-26T02:08:18;97730.25;;;12.19;59.47
70217;BME280;65567;55.684;37.570;2023-03-26T02:10:54;97723.34;;;12.18;59.34
70217;BME280;65567;55.684;37.570;2023-03-26T02:13:22;97731.69;;;12.23;59.19
70217;BME280;65567;55.684;37.570;2023-03-26T02:16:00;97724.81;;;12.11;59.63
70217;BME280;65567;55.684;37.570;2023-03-26T02:18:27;97723.09;;;12.21;59.37
70217;BME280;65567;55.684;37.570;2023-03-26T02:21:20;97721.94;;;12.14;59.31
70217;BME280;65567;55.684;37.570;2023-03-26T02:23:48;97718.22;;;12.17;59.18
70217;BME280;65567;55.684;37.570;2023-03-26T02:26:17;97720.53;;;12.10;59.62
70217;BME280;65567;55.684;37.570;2023-03-26T02:31:28;97726.97;;;11.95;59.95
70217;BME280;65567;55.684;37.570;2023-03-26T02:33:54;97731.78;;;11.78;60.71
70217;BME280;65567;55.684;37.570;2023-03-26T02:36:21;97730.56;;;11.94;60.52
70217;BME280;65567;55.684;37.570;2023-03-26T02:38:51;97729.50;;;11.96;60.45
70217;BME280;65567;55.684;37.570;2023-03-26T02:41:17;97725.00;;;11.76;60.58
70217;BME280;65567;55.684;37.570;2023-03-26T02:43:42;97724.50;;;11.82;60.79
70217;BME280;65567;55.684;37.570;2023-03-26T02:46:08;97716.16;;;11.77;60.87
70217;BME280;65567;55.684;37.570;2023-03-26T02:48:34;97710.50;;;11.37;62.37
70217;BME280;65567;55.684;37.570;2023-03-26T02:51:01;97717.56;;;11.26;62.67
70217;BME280;65567;55.684;37.570;2023-03-26T02:53:46;97714.34;;;11.45;62.36
70217;BME280;65567;55.684;37.570;2023-03-26T02:56:49;97718.72;;;11.44;62.65
70217;BME280;65567;55.684;37.570;2023-03-26T02:59:15;97711.94;;;11.41;62.34
70217;BME280;65567;55.684;37.570;2023-03-26T03:01:40;97713.47;;;11.44;62.36
70217;BME280;65567;55.684;37.570;2023-03-26T03:04:11;97707.50;;;11.53;62.24
70217;BME280;65567;55.684;37.570;2023-03-26T03:06:37;97709.66;;;11.48;62.39
70217;BME280;65567;55.684;37.570;2023-03-26T03:09:07;97701.56;;;11.51;62.29
70217;BME280;65567;55.684;37.570;2023-03-26T03:11:33;97704.31;;;11.50;62.56
70217;BME280;65567;55.684;37.570;2023-03-26T03:14:00;97693.50;;;11.43;62.43
70217;BME280;65567;55.684;37.570;2023-03-26T03:16:26;97696.22;;;11.41;62.62
70217;BME280;65567;55.684;37.570;2023-03-26T03:18:53;97694.41;;;11.53;62.47
70217;BME280;65567;55.684;37.570;2023-03-26T03:21:25;97693.09;;;11.59;62.25
70217;BME280;65567;55.684;37.570;2023-03-26T03:23:53;97698.22;;;11.61;62.18
70217;BME280;65567;55.684;37.570;2023-03-26T03:29:07;97692.28;;;11.47;62.60
70217;BME280;65567;55.684;37.570;2023-03-26T03:31:52;97683.94;;;11.42;62.85
70217;BME280;65567;55.684;37.570;2023-03-26T03:34:17;97684.16;;;11.39;62.75
70217;BME280;65567;55.684;37.570;2023-03-26T03:36:43;97680.47;;;11.53;62.72
70217;BME280;65567;55.684;37.570;2023-03-26T03:39:14;97675.13;;;11.43;62.75
70217;BME280;65567;55.684;37.570;2023-03-26T03:41:40;97670.94;;;11.52;62.38
70217;BME280;65567;55.684;37.570;2023-03-26T03:44:06;97672.75;;;11.40;63.17
70217;BME280;65567;55.684;37.570;2023-03-26T03:46:32;97661.19;;;11.31;63.51
70217;BME280;65567;55.684;37.570;2023-03-26T03:48:58;97656.41;;;11.48;62.71
70217;BME280;65567;55.684;37.570;2023-03-26T03:54:08;97656.44;;;11.25;63.67
70217;BME280;65567;55.684;37.570;2023-03-26T03:56:34;97668.44;;;11.39;63.17
70217;BME280;65567;55.684;37.570;2023-03-26T03:59:00;97663.94;;;11.30;63.68
70217;BME280;65567;55.684;37.570;2023-03-26T04:01:44;97662.78;;;11.11;64.44
70217;BME280;65567;55.684;37.570;2023-03-26T04:04:12;97667.28;;;11.09;64.37
70217;BME280;65567;55.684;37.570;2023-03-26T04:06:38;97668.97;;;10.87;65.10
70217;BME280;65567;55.684;37.570;2023-03-26T04:09:04;97658.72;;;11.07;64.87
70217;BME280;65567;55.684;37.570;2023-03-26T04:11:30;97661.81;;;10.89;65.33
70217;BME280;65567;55.684;37.570;2023-03-26T04:13:55;97655.25;;;10.72;65.59
70217;BME280;65567;55.684;37.570;2023-03-26T04:16:21;97646.81;;;10.91;65.02
70217;BME280;65567;55.684;37.570;2023-03-26T04:19:06;97650.28;;;10.81;65.37
70217;BME280;65567;55.684;37.570;2023-03-26T04:21:50;97648.34;;;10.83;65.59
70217;BME280;65567;55.684;37.570;2023-03-26T04:24:15;97646.81;;;10.91;65.46
70217;BME280;65567;55.684;37.570;2023-03-26T04:26:41;97638.72;;;10.95;65.39
70217;BME280;65567;55.684;37.570;2023-03-26T04:29:26;97641.69;;;10.90;65.36
70217;BME280;65567;55.684;37.570;2023-03-26T04:31:55;97649.91;;;10.85;65.74
70217;BME280;65567;55.684;37.570;2023-03-26T04:34:31;97632.50;;;10.84;65.77
70217;BME280;65567;55.684;37.570;2023-03-26T04:37:00;97630.75;;;10.85;65.77
70217;BME280;65567;55.684;37.570;2023-03-26T04:39:26;97630.63;;;10.86;65.63
70217;BME280;65567;55.684;37.570;2023-03-26T04:41:57;97629.66;;;10.99;65.33
70217;BME280;65567;55.684;37.570;2023-03-26T04:44:23;97625.38;;;10.86;65.59
70217;BME280;65567;55.684;37.570;2023-03-26T04:46:49;97626.81;;;10.68;66.57
70217;BME280;65567;55.684;37.570;2023-03-26T04:49:18;97621.09;;;10.74;66.31
70217;BME280;65567;55.684;37.570;2023-03-26T04:52:02;97620.13;;;10.75;66.46
70217;BME280;65567;55.684;37.570;2023-03-26T04:54:28;97614.31;;;10.60;67.09
70217;BME280;65567;55.684;37.570;2023-03-26T04:56:59;97608.50;;;10.68;66.61
70217;BME280;65567;55.684;37.570;2023-03-26T04:59:44;97598.25;;;10.76;66.47
70217;BME280;65567;55.684;37.570;2023-03-26T05:02:10;97612.75;;;11.03;65.99
70217;BME280;65567;55.684;37.570;2023-03-26T05:04:37;97603.44;;;10.99;65.96
70217;BME280;65567;55.684;37.570;2023-03-26T05:07:05;97603.44;;;10.99;65.60
70217;BME280;65567;55.684;37.570;2023-03-26T05:09:32;97603.69;;;10.96;65.70
70217;BME280;65567;55.684;37.570;2023-03-26T05:11:57;97602.97;;;11.05;65.51
70217;BME280;65567;55.684;37.570;2023-03-26T05:14:23;97603.09;;;11.03;65.46
70217;BME280;65567;55.684;37.570;2023-03-26T05:16:50;97592.50;;;11.05;65.48
70217;BME280;65567;55.684;37.570;2023-03-26T05:19:18;97595.34;;;11.13;65.48
70217;BME280;65567;55.684;37.570;2023-03-26T05:21:44;97588.63;;;11.32;64.71
70217;BME280;65567;55.684;37.570;2023-03-26T05:24:10;97602.22;;;11.26;65.03
70217;BME280;65567;55.684;37.570;2023-03-26T05:26:36;97599.88;;;11.22;64.67
70217;BME280;65567;55.684;37.570;2023-03-26T05:29:21;97606.59;;;11.36;64.31
70217;BME280;65567;55.684;37.570;2023-03-26T05:31:48;97597.00;;;11.14;64.69
70217;BME280;65567;55.684;37.570;2023-03-26T05:34:14;97602.75;;;11.08;65.16
70217;BME280;65567;55.684;37.570;2023-03-26T05:36:40;97598.53;;;11.17;64.78
70217;BME280;65567;55.684;37.570;2023-03-26T05:39:07;97606.19;;;11.20;64.89
70217;BME280;65567;55.684;37.570;2023-03-26T05:41:33;97604.16;;;11.12;65.03
70217;BME280;65567;55.684;37.570;2023-03-26T05:44:00;97595.97;;;11.05;65.34
70217;BME280;65567;55.684;37.570;2023-03-26T05:46:44;97597.47;;;11.19;65.22
70217;BME280;65567;55.684;37.570;2023-03-26T05:49:10;97597.47;;;11.19;64.90
70217;BME280;65567;55.684;37.570;2023-03-26T05:51:36;97588.63;;;11.32;64.45
70217;BME280;65567;55.684;37.570;2023-03-26T05:54:39;97590.38;;;11.43;64.32
70217;BME280;65567;55.684;37.570;2023-03-26T05:57:41;97588.97;;;11.71;63.79
70217;BME280;65567;55.684;37.570;2023-03-26T06:00:08;97578.53;;;11.81;63.32
70217;BME280;65567;55.684;37.570;2023-03-26T06:02:35;97576.31;;;11.76;63.20
70217;BME280;65567;55.684;37.570;2023-03-26T06:05:01;97573.25;;;11.71;63.16
70217;BME280;65567;55.684;37.570;2023-03-26T06:07:28;97571.34;;;11.73;63.17
70217;BME280;65567;55.684;37.570;2023-03-26T06:09:55;97564.28;;;11.73;63.47
70217;BME280;65567;55.684;37.570;2023-03-26T06:12:21;97566.97;;;11.83;62.98
70217;BME280;65567;55.684;37.570;2023-03-26T06:14:47;97560.75;;;11.84;63.08
70217;BME280;65567;55.684;37.570;2023-03-26T06:17:13;97557.88;;;11.66;63.66
70217;BME280;65567;55.684;37.570;2023-03-26T06:19:39;97552.44;;;11.58;63.78
70217;BME280;65567;55.684;37.570;2023-03-26T06:22:05;97552.56;;;11.56;63.81
70217;BME280;65567;55.684;37.570;2023-03-26T06:24:50;97552.94;;;11.52;64.38
70217;BME280;65567;55.684;37.570;2023-03-26T06:27:34;97548.47;;;11.64;64.16
70217;BME280;65567;55.684;37.570;2023-03-26T06:30:00;97544.88;;;11.65;64.02
70217;BME280;65567;55.684;37.570;2023-03-26T06:32:26;97543.28;;;11.52;64.53
70217;BME280;65567;55.684;37.570;2023-03-26T06:34:52;97541.00;;;11.27;65.56
70217;BME280;65567;55.684;37.570;2023-03-26T06:37:18;97541.41;;;11.43;64.85
70217;BME280;65567;55.684;37.570;2023-03-26T06:39:44;97536.09;;;11.54;64.60
70217;BME280;65567;55.684;37.570;2023-03-26T06:42:10;97532.06;;;11.50;64.88
70217;BME280;65567;55.684;37.570;2023-03-26T06:44:36;97525.78;;;11.41;65.23
70217;BME280;65567;55.684;37.570;2023-03-26T06:47:02;97525.69;;;11.43;65.25
70217;BME280;65567;55.684;37.570;2023-03-26T06:49:28;97524.56;;;11.46;65.44
70217;BME280;65567;55.684;37.570;2023-03-26T06:51:53;97514.56;;;11.72;64.50
70217;BME280;65567;55.684;37.570;2023-03-26T06:54:19;97514.50;;;11.83;64.28
70217;BME280;65567;55.684;37.570;2023-03-26T06:56:45;97508.13;;;11.76;64.85
70217;BME280;65567;55.684;37.570;2023-03-26T06:59:11;97510.69;;;11.87;64.29
70217;BME280;65567;55.684;37.570;2023-03-26T07:01:37;97509.94;;;11.97;64.33
70217;BME280;65567;55.684;37.570;2023-03-26T07:04:03;97508.00;;;11.99;64.30
70217;BME280;65567;55.684;37.570;2023-03-26T07:06:29;97492.41;;;11.86;64.64
70217;BME280;65567;55.684;37.570;2023-03-26T07:08:55;97500.94;;;11.78;65.31
70217;BME280;65567;55.684;37.570;2023-03-26T07:11:21;97488.78;;;11.77;65.30
70217;BME280;65567;55.684;37.570;2023-03-26T07:13:50;97481.75;;;11.99;64.42
70217;BME280;65567;55.684;37.570;2023-03-26T07:16:16;97488.16;;;11.85;65.02
70217;BME280;65567;55.684;37.570;2023-03-26T07:18:42;97476.81;;;11.84;64.92
70217;BME280;65567;55.684;37.570;2023-03-26T07:24:11;97465.94;;;11.89;64.99
70217;BME280;65567;55.684;37.570;2023-03-26T07:29:57;97466.47;;;11.62;65.49
70217;BME280;65567;55.684;37.570;2023-03-26T07:41:02;97472.19;;;11.13;66.72
70217;BME280;65567;55.684;37.570;2023-03-26T07:46:48;97470.19;;;11.05;66.77
70217;BME280;65567;55.684;37.570;2023-03-26T07:52:02;97447.28;;;11.40;65.84
70217;BME280;65567;55.684;37.570;2023-03-26T07:55:06;97448.88;;;10.99;67.00
70217;BME280;65567;55.684;37.570;2023-03-26T08:00:47;97448.03;;;11.10;66.88
70217;BME280;65567;55.684;37.570;2023-03-26T08:03:30;97438.84;;;11.04;66.89
70217;BME280;65567;55.684;37.570;2023-03-26T08:06:16;97457.13;;;11.27;66.51
70217;BME280;65567;55.684;37.570;2023-03-26T08:09:10;97457.66;;;11.63;65.56
70217;BME280;65567;55.684;37.570;2023-03-26T08:11:57;97450.16;;;11.58;65.50
70217;BME280;65567;55.684;37.570;2023-03-26T08:14:48;97450.28;;;11.35;65.67
70217;BME280;65567;55.684;37.570;2023-03-26T08:20:43;97417.97;;;11.14;67.01
70217;BME280;65567;55.684;37.570;2023-03-26T08:26:57;97440.78;;;11.02;67.20
70217;BME280;65567;55.684;37.570;2023-03-26T08:31:52;97421.50;;;11.03;66.85
70217;BME280;65567;55.684;37.570;2023-03-26T08:34:19;97416.63;;;11.19;66.11
70217;BME280;65567;55.684;37.570;2023-03-26T08:36:45;97417.16;;;11.13;66.40
70217;BME280;65567;55.684;37.570;2023-03-26T08:39:11;97418.03;;;11.02;66.74
70217;BME280;65567;55.684;37.570;2023-03-26T08:41:59;97402.13;;;11.15;66.46
70217;BME280;65567;55.684;37.570;2023-03-26T09:17:23;97385.31;;;11.18;66.10
70217;BME280;65567;55.684;37.570;2023-03-26T09:34:30;97377.03;;;10.48;68.21
70217;BME280;65567;55.684;37.570;2023-03-26T09:37:27;97370.81;;;10.60;68.22
70217;BME280;65567;55.684;37.570;2023-03-26T09:40:01;97368.97;;;10.72;67.39
70217;BME280;65567;55.684;37.570;2023-03-26T09:42:42;97352.56;;;10.70;68.10
70217;BME280;65567;55.684;37.570;2023-03-26T09:53:50;97344.66;;;11.02;67.70
70217;BME280;65567;55.684;37.570;2023-03-26T09:57:09;97344.53;;;11.04;67.45
70217;BME280;65567;55.684;37.570;2023-03-26T10:02:16;97341.59;;;11.18;67.08
70217;BME280;65567;55.684;37.570;2023-03-26T10:10:44;97340.31;;;11.65;65.27
70217;BME280;65567;55.684;37.570;2023-03-26T10:13:29;97336.56;;;11.57;65.21
70217;BME280;65567;55.684;37.570;2023-03-26T10:16:08;97339.00;;;11.49;64.87
70217;BME280;65567;55.684;37.570;2023-03-26T10:19:05;97330.97;;;11.72;64.60
70217;BME280;65567;55.684;37.570;2023-03-26T10:27:49;97337.31;;;11.69;64.96
70217;BME280;65567;55.684;37.570;2023-03-26T10:38:21;97328.06;;;11.75;64.48
70217;BME280;65567;55.684;37.570;2023-03-26T10:52:08;97315.75;;;11.97;64.02
70217;BME280;65567;55.684;37.570;2023-03-26T10:54:55;97314.28;;;11.73;64.43
70217;BME280;65567;55.684;37.570;2023-03-26T10:57:59;97304.66;;;11.52;64.79
70217;BME280;65567;55.684;37.570;2023-03-26T11:00:26;97313.84;;;11.68;64.29
70217;BME280;65567;55.684;37.570;2023-03-26T11:11:39;97315.09;;;12.14;63.84
70217;BME280;65567;55.684;37.570;2023-03-26T11:20:02;97302.84;;;11.43;65.07
70217;BME280;65567;55.684;37.570;2023-03-26T11:31:15;97304.63;;;11.83;64.40
70217;BME280;65567;55.684;37.570;2023-03-26T11:33:50;97299.38;;;11.83;63.94
70217;BME280;65567;55.684;37.570;2023-03-26T11:36:30;97301.03;;;11.84;64.39
70217;BME280;65567;55.684;37.570;2023-03-26T11:39:01;97296.16;;;12.01;63.30
70217;BME280;65567;55.684;37.570;2023-03-26T11:41:28;97297.75;;;11.82;63.95
70217;BME280;65567;55.684;37.570;2023-03-26T11:44:02;97300.31;;;11.63;64.65
70217;BME280;65567;55.684;37.570;2023-03-26T11:46:30;97295.56;;;11.56;64.46
70217;BME280;65567;55.684;37.570;2023-03-26T11:49:03;97303.16;;;11.50;64.86
70217;BME280;65567;55.684;37.570;2023-03-26T11:51:33;97302.91;;;11.63;64.55
70217;BME280;65567;55.684;37.570;2023-03-26T11:54:01;97297.97;;;11.69;64.22
70217;BME280;65567;55.684;37.570;2023-03-26T11:56:31;97289.63;;;11.54;64.61
70217;BME280;65567;55.684;37.570;2023-03-26T12:01:55;97286.16;;;11.95;63.67
70217;BME280;65567;55.684;37.570;2023-03-26T12:04:27;97298.56;;;11.83;64.42
70217;BME280;65567;55.684;37.570;2023-03-26T12:06:58;97294.13;;;11.83;64.12
70217;BME280;65567;55.684;37.570;2023-03-26T12:09:29;97289.50;;;11.97;63.80
70217;BME280;65567;55.684;37.570;2023-03-26T12:12:05;97290.72;;;11.93;63.56
70217;BME280;65567;55.684;37.570;2023-03-26T12:14:33;97292.81;;;11.99;63.68
70217;BME280;65567;55.684;37.570;2023-03-26T12:17:06;97285.25;;;11.65;64.09
70217;BME280;65567;55.684;37.570;2023-03-26T12:19:43;97278.44;;;11.52;64.71
70217;BME280;65567;55.684;37.570;2023-03-26T12:25:30;97278.25;;;11.44;65.18
70217;BME280;65567;55.684;37.570;2023-03-26T12:30:57;97279.06;;;11.76;64.23
70217;BME280;65567;55.684;37.570;2023-03-26T12:33:30;97268.97;;;11.71;64.11
70217;BME280;65567;55.684;37.570;2023-03-26T12:36:27;97265.53;;;11.70;64.24
70217;BME280;65567;55.684;37.570;2023-03-26T12:38:53;97264.44;;;11.73;64.37
70217;BME280;65567;55.684;37.570;2023-03-26T12:41:32;97262.19;;;11.99;63.41
70217;BME280;65567;55.684;37.570;2023-03-26T12:44:22;97263.97;;;11.99;63.31
70217;BME280;65567;55.684;37.570;2023-03-26T12:46:51;97259.34;;;11.81;63.80
70217;BME280;65567;55.684;37.570;2023-03-26T12:49:31;97253.00;;;11.94;63.67
70217;BME280;65567;55.684;37.570;2023-03-26T12:52:20;97259.50;;;11.89;63.69
70217;BME280;65567;55.684;37.570;2023-03-26T12:58:20;97259.69;;;11.98;63.36
70217;BME280;65567;55.684;37.570;2023-03-26T13:06:20;97252.97;;;11.74;63.82
70217;BME280;65567;55.684;37.570;2023-03-26T13:14:23;97259.34;;;11.81;64.18
70217;BME280;65567;55.684;37.570;2023-03-26T13:17:06;97261.06;;;12.02;63.98
70217;BME280;65567;55.684;37.570;2023-03-26T13:19:42;97255.44;;;11.66;64.28
70217;BME280;65567;55.684;37.570;2023-03-26T13:22:20;97259.31;;;11.71;64.29
70217;BME280;65567;55.684;37.570;2023-03-26T13:33:37;97258.88;;;11.56;64.21
70217;BME280;65567;55.684;37.570;2023-03-26T13:36:18;97252.56;;;11.79;63.50
70217;BME280;65567;55.684;37.570;2023-03-26T13:39:10;97254.81;;;11.43;64.44
70217;BME280;65567;55.684;37.570;2023-03-26T13:42:00;97245.47;;;11.50;64.17
70217;BME280;65567;55.684;37.570;2023-03-26T13:44:47;97247.38;;;11.17;65.30
70217;BME280;65567;55.684;37.570;2023-03-26T13:47:19;97242.84;;;11.19;65.27
70217;BME280;65567;55.684;37.570;2023-03-26T13:49:54;97250.66;;;11.40;64.69
70217;BME280;65567;55.684;37.570;2023-03-26T13:52:32;97242.69;;;11.51;64.24
70217;BME280;65567;55.684;37.570;2023-03-26T13:55:11;97238.88;;;11.75;63.48
70217;BME280;65567;55.684;37.570;2023-03-26T13:57:50;97238.31;;;11.62;66.08
70217;BME280;65567;55.684;37.570;2023-03-26T14:00:23;97242.03;;;11.69;64.90
70217;BME280;65567;55.684;37.570;2023-03-26T14:03:06;97242.50;;;11.84;64.43
70217;BME280;65567;55.684;37.570;2023-03-26T14:05:39;97244.88;;;11.46;64.74
70217;BME280;65567;55.684;37.570;2023-03-26T14:08:18;97250.25;;;11.85;63.87
70217;BME280;65567;55.684;37.570;2023-03-26T14:10:51;97243.72;;;11.70;63.83
70217;BME280;65567;55.684;37.570;2023-03-26T14:13:44;97243.56;;;11.71;63.84
70217;BME280;65567;55.684;37.570;2023-03-26T14:16:27;97256.97;;;11.78;63.69
70217;BME280;65567;55.684;37.570;2023-03-26T14:19:00;97250.91;;;11.68;63.56
70217;BME280;65567;55.684;37.570;2023-03-26T14:24:33;97250.09;;;11.36;64.36
70217;BME280;65567;55.684;37.570;2023-03-26T14:27:23;97258.81;;;11.47;64.46
70217;BME280;65567;55.684;37.570;2023-03-26T14:30:19;97254.50;;;11.36;64.48
70217;BME280;65567;55.684;37.570;2023-03-26T14:39:03;97247.72;;;11.02;65.44
70217;BME280;65567;55.684;37.570;2023-03-26T14:42:01;97248.19;;;10.86;65.99
70217;BME280;65567;55.684;37.570;2023-03-26T14:45:49;97246.91;;;11.02;65.42
70217;BME280;65567;55.684;37.570;2023-03-26T14:47:48;97249.88;;;11.18;65.27
70217;BME280;65567;55.684;37.570;2023-03-26T14:50:27;97247.28;;;10.97;65.87
70217;BME280;65567;55.684;37.570;2023-03-26T14:52:58;97245.91;;;11.24;64.96
70217;BME280;65567;55.684;37.570;2023-03-26T15:01:21;97240.44;;;11.37;64.30
70217;BME280;65567;55.684;37.570;2023-03-26T15:04:32;97234.78;;;11.32;64.43
70217;BME280;65567;55.684;37.570;2023-03-26T15:13:02;97238.84;;;10.94;65.63
70217;BME280;65567;55.684;37.570;2023-03-26T15:15:49;97226.31;;;10.97;65.29
70217;BME280;65567;55.684;37.570;2023-03-26T15:41:28;97234.53;;;10.83;65.79
70217;BME280;65567;55.684;37.570;2023-03-26T15:52:06;97241.38;;;10.95;65.00
70217;BME280;65567;55.684;37.570;2023-03-26T16:00:22;97243.84;;;10.97;65.28
70217;BME280;65567;55.684;37.570;2023-03-26T16:05:49;97247.03;;;10.79;65.64
70217;BME280;65567;55.684;37.570;2023-03-26T16:11:05;97238.69;;;10.85;65.73
70217;BME280;65567;55.684;37.570;2023-03-26T16:17:10;97244.22;;;11.13;64.42
70217;BME280;65567;55.684;37.570;2023-03-26T16:19:55;97245.91;;;11.24;64.24
70217;BME280;65567;55.684;37.570;2023-03-26T16:27:43;97246.06;;;11.01;64.76
70217;BME280;65567;55.684;37.570;2023-03-26T16:30:24;97244.47;;;11.10;64.68
70217;BME280;65567;55.684;37.570;2023-03-26T16:32:56;97236.00;;;10.97;64.89
70217;BME280;65567;55.684;37.570;2023-03-26T16:35:39;97247.59;;;11.04;64.54
70217;BME280;65567;55.684;37.570;2023-03-26T16:38:12;97241.31;;;10.64;65.78
70217;BME280;65567;55.684;37.570;2023-03-26T16:41:00;97238.22;;;10.80;65.21
70217;BME280;65567;55.684;37.570;2023-03-26T16:43:37;97250.22;;;11.04;64.84
70217;BME280;65567;55.684;37.570;2023-03-26T16:46:29;97253.72;;;11.14;64.10
70217;BME280;65567;55.684;37.570;2023-03-26T16:57:41;97250.63;;;11.30;63.85
70217;BME280;65567;55.684;37.570;2023-03-26T17:14:39;97261.28;;;10.86;64.76
70217;BME280;65567;55.684;37.570;2023-03-26T17:19:44;97260.69;;;11.04;64.46
70217;BME280;65567;55.684;37.570;2023-03-26T17:35:45;97254.31;;;10.97;64.22
70217;BME280;65567;55.684;37.570;2023-03-26T17:40:58;97250.22;;;11.04;64.64
70217;BME280;65567;55.684;37.570;2023-03-26T17:46:41;97252.06;;;10.92;64.41
70217;BME280;65567;55.684;37.570;2023-03-26T17:54:27;97240.00;;;11.01;64.53
70217;BME280;65567;55.684;37.570;2023-03-26T17:57:02;97243.78;;;10.87;64.98
70217;BME280;65567;55.684;37.570;2023-03-26T17:59:30;97251.25;;;10.91;64.89
70217;BME280;65567;55.684;37.570;2023-03-26T18:01:59;97247.03;;;10.79;65.10
70217;BME280;65567;55.684;37.570;2023-03-26T18:04:36;97241.44;;;10.63;65.67
70217;BME280;65567;55.684;37.570;2023-03-26T18:10:31;97247.34;;;10.86;64.84
70217;BME280;65567;55.684;37.570;2023-03-26T18:18:46;97246.44;;;11.18;64.03
70217;BME280;65567;55.684;37.570;2023-03-26T18:21:34;97245.81;;;11.04;64.40
70217;BME280;65567;55.684;37.570;2023-03-26T18:24:03;97242.78;;;11.09;64.35
70217;BME280;65567;55.684;37.570;2023-03-26T18:26:40;97245.03;;;11.14;64.28
70217;BME280;65567;55.684;37.570;2023-03-26T18:29:22;97233.53;;;11.05;64.33
70217;BME280;65567;55.684;37.570;2023-03-26T18:31:53;97238.81;;;10.84;64.78
70217;BME280;65567;55.684;37.570;2023-03-26T18:34:20;97240.28;;;10.98;64.75
70217;BME280;65567;55.684;37.570;2023-03-26T18:37:11;97243.78;;;10.87;64.85
70217;BME280;65567;55.684;37.570;2023-03-26T18:39:40;97236.00;;;10.97;64.52
70217;BME280;65567;55.684;37.570;2023-03-26T18:42:17;97235.84;;;10.98;64.47
70217;BME280;65567;55.684;37.570;2023-03-26T18:44:48;97227.88;;;10.79;65.38
70217;BME280;65567;55.684;37.570;2023-03-26T18:47:16;97237.75;;;10.96;64.61
70217;BME280;65567;55.684;37.570;2023-03-26T18:49:44;97221.81;;;11.09;64.42
70217;BME280;65567;55.684;37.570;2023-03-26T18:52:14;97239.50;;;11.07;64.52
70217;BME280;65567;55.684;37.570;2023-03-26T18:54:41;97233.97;;;11.10;64.04
70217;BME280;65567;55.684;37.570;2023-03-26T18:57:09;97234.81;;;11.11;64.09